createdAt,value
2023-01-17T00:00:46.196Z,8.13
2023-01-17T00:06:07.364Z,14.07
2023-01-17T00:11:09.998Z,11.25
2023-01-17T00:16:13.319Z,15.40
2023-01-17T00:21:36.373Z,17.33
2023-01-17T00:26:59.067Z,9.25
2023-01-17T00:32:02.343Z,11.73
2023-01-17T00:37:04.994Z,5.68
2023-01-17T00:42:08.451Z,7.32
2023-01-17T00:47:29.541Z,6.40
2023-01-17T00:52:51.695Z,5.25
2023-01-17T00:58:13.042Z,5.80
2023-01-17T01:03:35.531Z,3.15
2023-01-17T01:08:57.144Z,2.20
2023-01-17T01:14:19.049Z,15.95
2023-01-17T01:19:41.354Z,3.45
2023-01-17T01:25:03.898Z,3.72
2023-01-17T01:30:25.543Z,3.42
2023-01-17T01:35:28.400Z,0.55
2023-01-17T01:40:31.156Z,3.40
2023-01-17T01:45:33.835Z,3.42
2023-01-17T01:50:37.609Z,3.05
2023-01-17T01:55:41.324Z,5.22
2023-01-17T02:00:45.379Z,1.17
2023-01-17T02:05:48.369Z,5.38
2023-01-17T02:10:51.225Z,2.45
2023-01-17T02:16:18.747Z,2.53
2023-01-17T02:21:38.084Z,5.25
2023-01-17T02:26:53.150Z,3.08
2023-01-17T02:32:01.265Z,2.63
2023-01-17T02:37:06.716Z,2.72
2023-01-17T02:42:16.853Z,7.18
2023-01-17T02:47:43.528Z,4.93
2023-01-17T02:53:00.954Z,4.38
2023-01-17T02:58:35.271Z,1.88
2023-01-17T03:04:17.479Z,4.40
2023-01-17T03:09:21.436Z,5.10
2023-01-17T03:14:24.107Z,4.67
2023-01-17T03:19:26.650Z,7.95
2023-01-17T03:24:32.008Z,3.10
2023-01-17T03:29:35.690Z,2.90
2023-01-17T03:34:56.796Z,10.57
2023-01-17T03:40:00.491Z,3.33
2023-01-17T03:45:03.259Z,3.22
2023-01-17T03:50:07.005Z,4.28
2023-01-17T03:55:10.705Z,4.25
2023-01-17T04:00:13.993Z,13.27
2023-01-17T04:05:21.562Z,5.30
2023-01-17T04:10:24.069Z,4.57
2023-01-17T04:15:29.737Z,5.57
2023-01-17T04:20:40.076Z,3.10
2023-01-17T04:25:42.925Z,3.50
2023-01-17T04:30:45.455Z,4.53
2023-01-17T04:35:53.312Z,2.40
2023-01-17T04:40:55.838Z,3.25
2023-01-17T04:45:59.283Z,6.25
2023-01-17T04:51:03.857Z,9.13
2023-01-17T04:56:06.935Z,2.35
2023-01-17T05:01:10.481Z,4.57
2023-01-17T05:06:13.120Z,3.63
2023-01-17T05:11:15.681Z,4.10
2023-01-17T05:16:21.840Z,6.95
2023-01-17T05:21:24.417Z,4.80
2023-01-17T05:26:27.740Z,3.90
2023-01-17T05:31:30.260Z,5.20
2023-01-17T05:36:34.254Z,5.18
2023-01-17T05:41:36.708Z,4.57
2023-01-17T05:46:41.125Z,9.15
2023-01-17T05:51:43.792Z,7.75
2023-01-17T05:56:46.562Z,15.98
2023-01-17T06:01:49.084Z,9.20
2023-01-17T06:06:51.853Z,11.98
2023-01-17T06:11:54.418Z,7.03
2023-01-17T06:16:57.221Z,10.25
2023-01-17T06:21:59.962Z,8.70
2023-01-17T06:27:04.758Z,17.60
2023-01-17T06:32:07.251Z,13.18
2023-01-17T06:37:09.943Z,12.32
2023-01-17T06:42:13.594Z,13.70
2023-01-17T06:47:18.770Z,7.75
2023-01-17T06:52:21.313Z,14.40
2023-01-17T06:57:23.895Z,24.02
2023-01-17T07:02:26.450Z,7.50
2023-01-17T07:07:29.095Z,6.70
2023-01-17T07:12:31.757Z,26.88
2023-01-17T07:17:35.278Z,12.95
2023-01-17T07:22:37.958Z,11.40
2023-01-17T07:27:40.553Z,16.50
2023-01-17T07:32:43.148Z,14.48
2023-01-17T07:37:50.932Z,13.77
2023-01-17T07:42:53.614Z,14.05
2023-01-17T07:47:59.551Z,19.75
2023-01-17T07:53:02.778Z,17.65
2023-01-17T07:58:05.549Z,16.90
2023-01-17T08:03:13.613Z,8.85
2023-01-17T08:08:17.867Z,14.70
2023-01-17T08:13:21.901Z,11.18
2023-01-17T08:18:24.520Z,18.85
2023-01-17T08:23:28.742Z,9.77
2023-01-17T08:28:31.313Z,9.27
2023-01-17T08:33:33.880Z,13.25
2023-01-17T08:38:38.047Z,19.63
2023-01-17T08:43:40.598Z,19.35
2023-01-17T08:48:44.096Z,13.48
2023-01-17T08:53:46.734Z,15.50
2023-01-17T08:58:49.550Z,22.33
2023-01-17T09:03:52.319Z,16.50
2023-01-17T09:08:55.441Z,24.63
2023-01-17T09:13:58.068Z,22.10
2023-01-17T09:19:00.908Z,13.43
2023-01-17T09:24:03.600Z,10.63
2023-01-17T09:29:06.510Z,17.38
2023-01-17T09:34:09.179Z,15.32
2023-01-17T09:39:14.519Z,12.18
2023-01-17T09:44:26.330Z,18.80
2023-01-17T09:49:44.714Z,11.40
2023-01-17T09:54:49.123Z,35.50
2023-01-17T10:00:04.068Z,17.58
2023-01-17T10:05:45.535Z,16.27
2023-01-17T10:11:33.472Z,15.48
2023-01-17T10:17:13.692Z,14.88
2023-01-17T10:22:46.458Z,14.60
2023-01-17T10:28:01.265Z,9.23
2023-01-17T10:33:20.141Z,12.50
2023-01-17T10:38:30.529Z,17.02
2023-01-17T10:44:00.013Z,17.80
2023-01-17T10:49:03.783Z,17.13
2023-01-17T10:54:09.610Z,20.87
2023-01-17T10:59:24.330Z,20.63
2023-01-17T11:04:37.138Z,23.67
2023-01-17T11:09:42.655Z,19.67
2023-01-17T11:15:02.951Z,30.38
2023-01-17T11:20:24.605Z,31.02
2023-01-17T11:25:28.243Z,27.38
2023-01-17T11:30:30.922Z,39.95
2023-01-17T11:35:38.016Z,27.40
2023-01-17T11:40:46.362Z,33.22
2023-01-17T11:46:30.121Z,36.17
2023-01-17T11:51:42.015Z,33.50
2023-01-17T11:56:46.599Z,38.40
2023-01-17T12:02:19.106Z,35.95
2023-01-17T12:07:53.497Z,43.70
2023-01-17T12:13:29.537Z,26.15
2023-01-17T12:18:49.797Z,29.48
2023-01-17T12:24:23.789Z,25.67
2023-01-17T12:30:01.774Z,27.27
2023-01-17T12:35:18.178Z,23.92
2023-01-17T12:40:25.995Z,16.83
2023-01-17T12:45:33.186Z,16.77
2023-01-17T12:50:55.045Z,17.60
2023-01-17T12:56:05.860Z,14.55
2023-01-17T13:01:43.268Z,17.85
2023-01-17T13:06:50.868Z,20.25
2023-01-17T13:12:01.347Z,13.35
2023-01-17T13:17:58.545Z,11.00
2023-01-17T13:23:08.575Z,13.25
2023-01-17T13:28:36.507Z,11.45
2023-01-17T13:34:00.765Z,8.98
2023-01-17T13:39:41.955Z,13.73
2023-01-17T13:44:45.600Z,19.70
2023-01-17T13:49:51.561Z,11.40
2023-01-17T13:55:03.417Z,10.02
2023-01-17T14:00:23.963Z,5.97
2023-01-17T14:05:39.317Z,6.90
2023-01-17T14:10:45.254Z,8.77
2023-01-17T14:15:50.161Z,14.38
2023-01-17T14:26:28.640Z,8.05
2023-01-17T14:37:27.361Z,7.90
2023-01-17T14:42:30.950Z,6.55
2023-01-17T14:47:39.429Z,10.68
2023-01-17T14:52:41.985Z,7.88
2023-01-17T14:57:55.985Z,10.73
2023-01-17T15:03:01.775Z,7.10
2023-01-17T15:08:04.771Z,4.65
2023-01-17T15:13:09.157Z,8.52
2023-01-17T15:18:14.901Z,9.18
2023-01-17T15:23:19.821Z,7.47
2023-01-17T15:28:24.467Z,5.95
2023-01-17T15:33:27.185Z,4.82
2023-01-17T15:38:38.721Z,6.65
2023-01-17T15:43:43.419Z,9.23
2023-01-17T15:48:46.083Z,6.38
2023-01-17T15:53:48.610Z,4.53
2023-01-17T15:58:51.336Z,8.77
2023-01-17T16:03:54.951Z,9.68
2023-01-17T16:08:57.568Z,5.13
2023-01-17T16:14:00.115Z,6.38
2023-01-17T16:19:05.305Z,20.35
2023-01-17T16:24:11.487Z,5.68
2023-01-17T16:29:14.615Z,5.68
2023-01-17T16:34:17.199Z,7.97
2023-01-17T16:39:20.573Z,9.52
2023-01-17T16:44:24.369Z,9.38
2023-01-17T16:49:28.072Z,5.72
2023-01-17T16:54:30.659Z,9.98
2023-01-17T16:59:46.092Z,19.63
2023-01-17T17:04:53.108Z,13.77
2023-01-17T17:09:55.892Z,11.70
2023-01-17T17:14:59.257Z,9.40
2023-01-17T17:20:02.162Z,7.18
2023-01-17T17:25:06.459Z,9.73
2023-01-17T17:30:11.470Z,7.83
2023-01-17T17:35:14.036Z,11.85
2023-01-17T17:40:16.854Z,16.92
2023-01-17T17:45:19.357Z,9.15
2023-01-17T17:50:22.037Z,18.40
2023-01-17T17:55:24.686Z,13.30
2023-01-17T18:00:28.059Z,12.77
2023-01-17T18:05:31.477Z,11.95
2023-01-17T18:10:34.192Z,12.55
2023-01-17T18:15:40.207Z,8.88
2023-01-17T18:20:42.815Z,12.57
2023-01-17T18:25:45.461Z,9.95
2023-01-17T18:30:48.303Z,10.27
2023-01-17T18:35:55.354Z,13.80
2023-01-17T18:41:02.961Z,18.08
2023-01-17T18:46:07.055Z,30.48
2023-01-17T18:51:12.488Z,33.15
2023-01-17T18:56:20.383Z,22.10
2023-01-17T19:01:25.622Z,17.65
2023-01-17T19:06:33.968Z,21.45
2023-01-17T19:11:36.932Z,22.17
2023-01-17T19:16:41.319Z,27.95
2023-01-17T19:21:46.535Z,20.42
2023-01-17T19:26:52.852Z,33.50
2023-01-17T19:31:55.841Z,24.40
2023-01-17T19:36:58.918Z,24.15
2023-01-17T19:42:02.565Z,19.65
2023-01-17T19:47:05.384Z,20.52
2023-01-17T19:52:08.882Z,30.15
2023-01-17T19:57:36.988Z,25.80
2023-01-17T20:02:40.118Z,19.98
2023-01-17T20:07:42.779Z,34.85
2023-01-17T20:12:45.602Z,17.20
2023-01-17T20:17:48.078Z,17.38
2023-01-17T20:22:50.738Z,32.78
2023-01-17T20:27:55.077Z,25.55
2023-01-17T20:32:59.564Z,27.23
2023-01-17T20:38:02.078Z,27.63
2023-01-17T20:43:04.861Z,28.75
2023-01-17T20:48:07.469Z,26.40
2023-01-17T20:53:12.685Z,26.25
2023-01-17T20:58:15.358Z,31.85
2023-01-17T21:03:18.184Z,22.30
2023-01-17T21:08:20.741Z,24.60
2023-01-17T21:13:24.234Z,21.95
2023-01-17T21:18:29.530Z,24.92
2023-01-17T21:23:37.945Z,19.00
2023-01-17T21:28:43.235Z,24.35
2023-01-17T21:33:47.904Z,27.65
2023-01-17T21:38:52.461Z,27.90
2023-01-17T21:48:58.601Z,20.20
2023-01-17T21:54:02.483Z,23.25
2023-01-17T21:59:05.472Z,24.63
2023-01-17T22:04:10.108Z,22.40
2023-01-17T22:09:16.066Z,30.73
2023-01-17T22:14:19.850Z,20.77
2023-01-17T22:19:22.608Z,24.80
2023-01-17T22:24:25.216Z,28.27
2023-01-17T22:29:27.797Z,30.88
2023-01-17T22:34:30.787Z,24.33
2023-01-17T22:39:33.430Z,20.27
2023-01-17T22:44:36.032Z,20.63
2023-01-17T22:49:39.903Z,23.60
2023-01-17T22:54:42.630Z,33.88
2023-01-17T22:59:45.446Z,25.90
2023-01-17T23:04:49.131Z,32.42
2023-01-17T23:09:51.872Z,25.00
2023-01-17T23:15:13.054Z,24.90
2023-01-17T23:20:16.529Z,27.45
2023-01-17T23:25:19.363Z,28.70
2023-01-17T23:30:25.036Z,19.95
2023-01-17T23:35:30.289Z,22.00
2023-01-17T23:40:34.090Z,25.00
2023-01-17T23:45:38.066Z,16.53
2023-01-17T23:50:44.270Z,16.98
2023-01-17T23:55:47.030Z,21.05
